Terminal Aerodrome Forecast
Issued by NWS

Home | Current Version | Previous Version | Text Only | Print | Product List | Glossary On
Versions: 1 2 3 4 5 6 7 8 9 10 11 12 13 14 15 16 17 18 19 20 21 22 23 24 25 26 27 28 29 30 31 32 33 34
000
FTUS46 KPQR 150522
TAFONP
TAF
KONP 150522Z 1506/1606 00000KT P6SM SKC
      TEMPO 1510/1514 3SM BR SCT001
     FM151700 21005KT 2SM BR BKN004=

USA.gov is the U.S. government's official web portal to all federal, state and local government web resources and services.